Weather at St Simons Island Airport

Public forecast

Using degrees Fahrenheit for public forecast. Weather courtesy of forecast.io.

Current aviation weather report (METAR) for St Simons Island Airport

Retrieved 2020/09/22 21:53 UTC (60 minutes ago):

KSSI 222153Z AUTO 06009KT 10SM CLR 23/16 A3011 RMK AO2 SLP197 T02280156

Aviation forecast (TAF) for St Simons Island Airport

Retrieved 2020/09/22 18:22 UTC (5 hours ago):

TAF KSSI 221720Z 2218/2318 05013G20KT P6SM SCT025 BKN050 FM222200 06011KT P6SM FEW035 SCT250 FM230300 07004KT P6SM BKN250 FM231500 10007KT P6SM BKN250